This is the latest recevied weather packets stored in our database for station/object K1RFS. If no packets are shown the sender has not sent any weather packets the latest 1 day(s).
| Time | Temp. | Humidity | Pressure | Rain* | Wind** | Luminosity | Snow |
|---|---|---|---|---|---|---|---|
| 1778004536 | 11.67° C | 59% | 995.6 hPa | 0 mm | 0.45 m/s, 172° | 333 W/m² | - |
| 1778004233 | 11.11° C | 59% | 995.9 hPa | 0 mm | 2.24 m/s, 250° | 229 W/m² | - |
| 1778003930 | 11.11° C | 60% | 995.9 hPa | 0 mm | 1.34 m/s, 185° | 171 W/m² | - |
| 1778003626 | 11.11° C | 61% | 995.9 hPa | 0 mm | 1.34 m/s, 191° | 156 W/m² | - |
| 1778003322 | 11.11° C | 61% | 996 hPa | 0 mm | 1.34 m/s, 188° | 170 W/m² | - |
| 1778003020 | 11.11° C | 61% | 995.9 hPa | 0 mm | 1.34 m/s, 184° | 168 W/m² | - |
| 1778002716 | 10.56° C | 62% | 995.8 hPa | 0 mm | 0.89 m/s, 186° | 192 W/m² | - |
| 1778002413 | 10.56° C | 63% | 995.7 hPa | 0 mm | 1.34 m/s, 187° | 151 W/m² | - |
| 1778002110 | 10.56° C | 63% | 995.9 hPa | 0 mm | 2.68 m/s, 149° | 128 W/m² | - |
| 1778001808 | 10.56° C | 63% | 996 hPa | 0 mm | 0.89 m/s, 185° | 169 W/m² | - |
| 1778001502 | 10.56° C | 64% | 995.9 hPa | 0 mm | 0.45 m/s, 194° | 173 W/m² | - |
| 1778001199 | 10.56° C | 63% | 995.9 hPa | 0 mm | 1.34 m/s, 185° | 175 W/m² | - |
| 1778000895 | 10.56° C | 64% | 995.8 hPa | 0 mm | 0.89 m/s, 188° | 183 W/m² | - |
| 1778000592 | 10° C | 65% | 996 hPa | 0 mm | 1.34 m/s, 206° | 179 W/m² | - |
| 1778000288 | 10° C | 66% | 996 hPa | 0 mm | 1.79 m/s, 134° | 125 W/m² | - |
| 1777999984 | 10° C | 66% | 995.9 hPa | 0 mm | 0.45 m/s, 190° | 108 W/m² | - |
| 1777999679 | 9.44° C | 67% | 996.1 hPa | 0 mm | 1.34 m/s, 183° | 93 W/m² | - |
| 1777999377 | 9.44° C | 69% | 995.9 hPa | 0 mm | 2.24 m/s, 230° | 90 W/m² | - |
| 1777999075 | 9.44° C | 70% | 995.7 hPa | 0 mm | 0.45 m/s, 222° | 115 W/m² | - |
| 1777998773 | 9.44° C | 72% | 995.9 hPa | 0 mm | 0.89 m/s, 271° | 126 W/m² | - |
| 1777998470 | 9.44° C | 73% | 995.9 hPa | 0 mm | 1.34 m/s, 162° | 174 W/m² | - |
| 1777998167 | 9.44° C | 73% | 995.9 hPa | 0 mm | 1.34 m/s, 189° | 139 W/m² | - |
| 1777997864 | 9.44° C | 71% | 996 hPa | 0 mm | 1.79 m/s, 301° | 96 W/m² | - |
| 1777997562 | 9.44° C | 68% | 996 hPa | 0 mm | 1.79 m/s, 206° | 71 W/m² | - |
| 1777997259 | 9.44° C | 66% | 996.1 hPa | 0 mm | 1.79 m/s, 203° | 60 W/m² | - |
* Rain latest hour (hover to see other rain measurements)
** Current wind speed in m/s (hover to see current wind gust speed)